Pagrindinis puslapis
METAR-TAF:

METAR-TAF

Oro uostai :

Chico, Kalifornija, Jungtinės Amerikos Valstijos

platuma: 39-48N, ilguma: 121-51W, Aukštis: 73 m

Dabartinis oras

Ataskaita buvo paskelbta 14 minutes, ne 06:55 UTC
Vėjas 8 kt iš Pietryčių
Temperatūra 19°C
Drėgmė 56%
Slėgis 1012 hPa
Matomumas: 16.1 km
Giedras dangus

METAR: KCIC 270655Z AUTO 14008KT 10SM CLR 19/10 A2989 RMK AO1

Laikas: 00:09 (07:09 UTC)


TAF: trūkstamas

Orai ataskaitas ir orų prognozės (METAR, TAF).

turimą stotys yra geltonos ir raudonos taškus žemėlapyje.

Perkelti pele per norėdami pamatyti stoties vardą.

Tada spustelėkite, norėdami matyti oro stebėjimo ir prognozės.

Norėdami pakeisti žemėlapį: spustelėkite ant žalios mygtukų su juodo kryžiaus žemyn,; žalią mygtuką su brūkšneliu, jei norite nutolinti; arba žalių rodyklių gretimoms žemėlapius.


METAR-TAF: